sensor_id;sensor_type;location;lat;lon;timestamp;temperature;humidity
15107;DHT22;7654;45.308;-75.096;2023-04-22T00:01:02;11.80;97.00
15107;DHT22;7654;45.308;-75.096;2023-04-22T00:03:32;11.80;97.30
15107;DHT22;7654;45.308;-75.096;2023-04-22T00:06:03;11.70;97.50
15107;DHT22;7654;45.308;-75.096;2023-04-22T00:08:34;11.60;97.60
15107;DHT22;7654;45.308;-75.096;2023-04-22T00:11:07;11.60;97.50
15107;DHT22;7654;45.308;-75.096;2023-04-22T00:13:37;11.50;97.80
15107;DHT22;7654;45.308;-75.096;2023-04-22T00:16:08;11.40;98.00
15107;DHT22;7654;45.308;-75.096;2023-04-22T00:18:38;11.30;98.60
15107;DHT22;7654;45.308;-75.096;2023-04-22T00:21:09;11.30;98.60
15107;DHT22;7654;45.308;-75.096;2023-04-22T00:23:40;11.30;99.10
15107;DHT22;7654;45.308;-75.096;2023-04-22T00:26:12;11.20;99.60
15107;DHT22;7654;45.308;-75.096;2023-04-22T00:28:42;11.20;99.60
15107;DHT22;7654;45.308;-75.096;2023-04-22T00:31:12;11.20;99.80
15107;DHT22;7654;45.308;-75.096;2023-04-22T00:33:43;11.20;99.90
15107;DHT22;7654;45.308;-75.096;2023-04-22T00:36:13;11.10;99.90
15107;DHT22;7654;45.308;-75.096;2023-04-22T00:38:48;11.10;99.90
15107;DHT22;7654;45.308;-75.096;2023-04-22T00:41:19;11.10;99.90
15107;DHT22;7654;45.308;-75.096;2023-04-22T00:43:50;11.00;99.90
15107;DHT22;7654;45.308;-75.096;2023-04-22T00:46:21;11.00;99.90
15107;DHT22;7654;45.308;-75.096;2023-04-22T00:48:52;10.90;99.90
15107;DHT22;7654;45.308;-75.096;2023-04-22T00:51:22;10.90;99.90
15107;DHT22;7654;45.308;-75.096;2023-04-22T00:53:54;10.80;99.90
15107;DHT22;7654;45.308;-75.096;2023-04-22T00:56:26;10.80;99.90
15107;DHT22;7654;45.308;-75.096;2023-04-22T00:58:56;10.70;99.90
15107;DHT22;7654;45.308;-75.096;2023-04-22T01:01:27;10.60;99.90
15107;DHT22;7654;45.308;-75.096;2023-04-22T01:03:59;10.60;99.90
15107;DHT22;7654;45.308;-75.096;2023-04-22T01:06:31;10.50;99.90
15107;DHT22;7654;45.308;-75.096;2023-04-22T01:09:06;10.50;99.90
15107;DHT22;7654;45.308;-75.096;2023-04-22T01:11:37;10.50;99.90
15107;DHT22;7654;45.308;-75.096;2023-04-22T01:14:09;10.40;99.90
15107;DHT22;7654;45.308;-75.096;2023-04-22T01:16:40;10.40;99.90
15107;DHT22;7654;45.308;-75.096;2023-04-22T01:19:12;10.40;99.90
15107;DHT22;7654;45.308;-75.096;2023-04-22T01:21:43;10.40;99.90
15107;DHT22;7654;45.308;-75.096;2023-04-22T01:24:16;10.40;99.90
15107;DHT22;7654;45.308;-75.096;2023-04-22T01:26:47;10.40;99.90
15107;DHT22;7654;45.308;-75.096;2023-04-22T01:29:17;10.40;99.90
15107;DHT22;7654;45.308;-75.096;2023-04-22T01:31:48;10.30;99.90
15107;DHT22;7654;45.308;-75.096;2023-04-22T01:34:18;10.40;99.90
15107;DHT22;7654;45.308;-75.096;2023-04-22T01:36:49;10.50;99.90
15107;DHT22;7654;45.308;-75.096;2023-04-22T01:39:22;10.50;99.90
15107;DHT22;7654;45.308;-75.096;2023-04-22T01:41:53;10.50;99.90
15107;DHT22;7654;45.308;-75.096;2023-04-22T01:44:25;10.60;99.90
15107;DHT22;7654;45.308;-75.096;2023-04-22T01:46:55;10.70;99.90
15107;DHT22;7654;45.308;-75.096;2023-04-22T01:49:25;10.70;99.90
15107;DHT22;7654;45.308;-75.096;2023-04-22T01:51:56;10.70;99.90
15107;DHT22;7654;45.308;-75.096;2023-04-22T01:54:28;10.80;99.90
15107;DHT22;7654;45.308;-75.096;2023-04-22T01:56:59;10.70;99.90
15107;DHT22;7654;45.308;-75.096;2023-04-22T01:59:29;10.70;99.90
15107;DHT22;7654;45.308;-75.096;2023-04-22T02:02:00;10.70;99.90
15107;DHT22;7654;45.308;-75.096;2023-04-22T02:04:31;10.70;99.90
15107;DHT22;7654;45.308;-75.096;2023-04-22T02:07:01;10.70;99.90
15107;DHT22;7654;45.308;-75.096;2023-04-22T02:09:34;10.70;99.90
15107;DHT22;7654;45.308;-75.096;2023-04-22T02:12:05;10.70;99.90
15107;DHT22;7654;45.308;-75.096;2023-04-22T02:14:37;10.70;99.90
15107;DHT22;7654;45.308;-75.096;2023-04-22T02:17:07;10.70;99.90
15107;DHT22;7654;45.308;-75.096;2023-04-22T02:19:38;10.70;99.90
15107;DHT22;7654;45.308;-75.096;2023-04-22T02:22:09;10.80;99.90
15107;DHT22;7654;45.308;-75.096;2023-04-22T02:24:41;10.80;99.90
15107;DHT22;7654;45.308;-75.096;2023-04-22T02:27:12;10.80;99.90
15107;DHT22;7654;45.308;-75.096;2023-04-22T02:29:43;10.70;99.90
15107;DHT22;7654;45.308;-75.096;2023-04-22T02:32:14;10.70;99.90
15107;DHT22;7654;45.308;-75.096;2023-04-22T02:34:47;10.60;99.90
15107;DHT22;7654;45.308;-75.096;2023-04-22T02:37:19;10.60;99.90
15107;DHT22;7654;45.308;-75.096;2023-04-22T02:39:51;10.50;99.90
15107;DHT22;7654;45.308;-75.096;2023-04-22T02:42:22;10.40;99.90
15107;DHT22;7654;45.308;-75.096;2023-04-22T02:44:52;10.50;99.90
15107;DHT22;7654;45.308;-75.096;2023-04-22T02:47:23;10.50;99.90
15107;DHT22;7654;45.308;-75.096;2023-04-22T02:49:54;10.60;99.90
15107;DHT22;7654;45.308;-75.096;2023-04-22T02:52:24;10.60;99.90
15107;DHT22;7654;45.308;-75.096;2023-04-22T02:54:56;10.60;99.90
15107;DHT22;7654;45.308;-75.096;2023-04-22T02:57:27;10.50;99.90
15107;DHT22;7654;45.308;-75.096;2023-04-22T02:59:57;10.50;99.90
15107;DHT22;7654;45.308;-75.096;2023-04-22T03:02:28;10.40;99.90
15107;DHT22;7654;45.308;-75.096;2023-04-22T03:04:58;10.30;99.90
15107;DHT22;7654;45.308;-75.096;2023-04-22T03:07:29;10.30;99.90
15107;DHT22;7654;45.308;-75.096;2023-04-22T03:10:01;10.20;99.90
15107;DHT22;7654;45.308;-75.096;2023-04-22T03:12:31;10.20;99.90
15107;DHT22;7654;45.308;-75.096;2023-04-22T03:15:02;10.10;99.90
15107;DHT22;7654;45.308;-75.096;2023-04-22T03:17:32;10.00;99.90
15107;DHT22;7654;45.308;-75.096;2023-04-22T03:20:03;10.00;99.90
15107;DHT22;7654;45.308;-75.096;2023-04-22T03:22:36;10.00;99.90
15107;DHT22;7654;45.308;-75.096;2023-04-22T03:25:10;10.00;99.90
15107;DHT22;7654;45.308;-75.096;2023-04-22T03:27:40;10.00;99.90
15107;DHT22;7654;45.308;-75.096;2023-04-22T03:30:11;10.10;99.90
15107;DHT22;7654;45.308;-75.096;2023-04-22T03:32:41;10.00;99.90
15107;DHT22;7654;45.308;-75.096;2023-04-22T03:35:12;10.00;99.90
15107;DHT22;7654;45.308;-75.096;2023-04-22T03:37:42;10.10;99.90
15107;DHT22;7654;45.308;-75.096;2023-04-22T03:40:14;10.20;99.90
15107;DHT22;7654;45.308;-75.096;2023-04-22T03:42:45;10.20;99.90
15107;DHT22;7654;45.308;-75.096;2023-04-22T03:45:15;10.20;99.90
15107;DHT22;7654;45.308;-75.096;2023-04-22T03:47:46;10.20;99.90
15107;DHT22;7654;45.308;-75.096;2023-04-22T03:50:17;10.20;99.90
15107;DHT22;7654;45.308;-75.096;2023-04-22T03:52:48;10.30;99.90
15107;DHT22;7654;45.308;-75.096;2023-04-22T03:55:20;10.30;99.90
15107;DHT22;7654;45.308;-75.096;2023-04-22T03:57:50;10.20;99.90
15107;DHT22;7654;45.308;-75.096;2023-04-22T04:00:21;10.20;99.90
15107;DHT22;7654;45.308;-75.096;2023-04-22T04:02:51;10.10;99.90
15107;DHT22;7654;45.308;-75.096;2023-04-22T04:05:22;10.00;99.90
15107;DHT22;7654;45.308;-75.096;2023-04-22T04:07:52;9.90;99.90
15107;DHT22;7654;45.308;-75.096;2023-04-22T04:10:25;9.70;99.90
15107;DHT22;7654;45.308;-75.096;2023-04-22T04:12:56;9.60;99.90
15107;DHT22;7654;45.308;-75.096;2023-04-22T04:15:26;9.40;99.90
15107;DHT22;7654;45.308;-75.096;2023-04-22T04:17:57;9.30;99.90
15107;DHT22;7654;45.308;-75.096;2023-04-22T04:20:28;9.20;99.90
15107;DHT22;7654;45.308;-75.096;2023-04-22T04:22:59;9.20;99.90
15107;DHT22;7654;45.308;-75.096;2023-04-22T04:25:31;9.20;99.90
15107;DHT22;7654;45.308;-75.096;2023-04-22T04:28:05;9.00;99.90
15107;DHT22;7654;45.308;-75.096;2023-04-22T04:30:37;8.80;99.90
15107;DHT22;7654;45.308;-75.096;2023-04-22T04:33:09;8.70;99.90
15107;DHT22;7654;45.308;-75.096;2023-04-22T04:35:39;8.60;99.90
15107;DHT22;7654;45.308;-75.096;2023-04-22T04:38:10;8.60;99.90
15107;DHT22;7654;45.308;-75.096;2023-04-22T04:40:43;8.50;99.90
15107;DHT22;7654;45.308;-75.096;2023-04-22T04:43:14;8.40;99.90
15107;DHT22;7654;45.308;-75.096;2023-04-22T04:45:45;8.30;99.90
15107;DHT22;7654;45.308;-75.096;2023-04-22T04:48:17;8.10;99.90
15107;DHT22;7654;45.308;-75.096;2023-04-22T04:50:52;8.00;99.90
15107;DHT22;7654;45.308;-75.096;2023-04-22T04:53:23;8.00;99.90
15107;DHT22;7654;45.308;-75.096;2023-04-22T04:55:54;8.00;99.90
15107;DHT22;7654;45.308;-75.096;2023-04-22T04:58:25;8.00;99.90
15107;DHT22;7654;45.308;-75.096;2023-04-22T05:00:55;7.90;99.90
15107;DHT22;7654;45.308;-75.096;2023-04-22T05:03:26;8.00;99.90
15107;DHT22;7654;45.308;-75.096;2023-04-22T05:05:56;8.00;99.90
15107;DHT22;7654;45.308;-75.096;2023-04-22T05:08:27;7.90;99.90
15107;DHT22;7654;45.308;-75.096;2023-04-22T05:10:59;8.00;99.90
15107;DHT22;7654;45.308;-75.096;2023-04-22T05:13:29;7.90;99.90
15107;DHT22;7654;45.308;-75.096;2023-04-22T05:15:59;7.90;99.90
15107;DHT22;7654;45.308;-75.096;2023-04-22T05:18:30;7.80;99.90
15107;DHT22;7654;45.308;-75.096;2023-04-22T05:21:00;7.70;99.90
15107;DHT22;7654;45.308;-75.096;2023-04-22T05:23:31;7.70;99.90
15107;DHT22;7654;45.308;-75.096;2023-04-22T05:26:03;7.80;99.90
15107;DHT22;7654;45.308;-75.096;2023-04-22T05:28:33;7.80;99.90
15107;DHT22;7654;45.308;-75.096;2023-04-22T05:31:04;7.70;99.90
15107;DHT22;7654;45.308;-75.096;2023-04-22T05:33:35;7.70;99.90
15107;DHT22;7654;45.308;-75.096;2023-04-22T05:36:06;7.60;99.90
15107;DHT22;7654;45.308;-75.096;2023-04-22T05:38:37;7.60;99.90
15107;DHT22;7654;45.308;-75.096;2023-04-22T05:41:09;7.50;99.90
15107;DHT22;7654;45.308;-75.096;2023-04-22T05:43:40;7.50;99.90
15107;DHT22;7654;45.308;-75.096;2023-04-22T05:46:10;7.40;99.90
15107;DHT22;7654;45.308;-75.096;2023-04-22T05:48:41;7.50;99.90
15107;DHT22;7654;45.308;-75.096;2023-04-22T05:51:11;7.50;99.90
15107;DHT22;7654;45.308;-75.096;2023-04-22T05:53:42;7.50;99.90
15107;DHT22;7654;45.308;-75.096;2023-04-22T05:56:14;7.50;99.90
15107;DHT22;7654;45.308;-75.096;2023-04-22T05:58:44;7.50;99.90
15107;DHT22;7654;45.308;-75.096;2023-04-22T06:01:15;7.50;99.90
15107;DHT22;7654;45.308;-75.096;2023-04-22T06:03:45;7.50;99.90
15107;DHT22;7654;45.308;-75.096;2023-04-22T06:06:16;7.60;99.90
15107;DHT22;7654;45.308;-75.096;2023-04-22T06:08:47;7.70;99.90
15107;DHT22;7654;45.308;-75.096;2023-04-22T06:11:19;7.90;99.90
15107;DHT22;7654;45.308;-75.096;2023-04-22T06:13:49;8.10;99.90
15107;DHT22;7654;45.308;-75.096;2023-04-22T06:16:21;8.30;99.90
15107;DHT22;7654;45.308;-75.096;2023-04-22T06:18:51;8.40;99.90
15107;DHT22;7654;45.308;-75.096;2023-04-22T06:21:22;8.60;99.90
15107;DHT22;7654;45.308;-75.096;2023-04-22T06:23:52;8.70;99.90
15107;DHT22;7654;45.308;-75.096;2023-04-22T06:26:24;8.70;99.90
15107;DHT22;7654;45.308;-75.096;2023-04-22T06:28:55;8.80;99.90
15107;DHT22;7654;45.308;-75.096;2023-04-22T06:31:26;8.80;99.90
15107;DHT22;7654;45.308;-75.096;2023-04-22T06:33:56;8.80;99.90
15107;DHT22;7654;45.308;-75.096;2023-04-22T06:36:27;8.80;99.90
15107;DHT22;7654;45.308;-75.096;2023-04-22T06:38:58;8.70;99.90
15107;DHT22;7654;45.308;-75.096;2023-04-22T06:41:31;8.70;99.90
15107;DHT22;7654;45.308;-75.096;2023-04-22T06:44:02;8.70;99.90
15107;DHT22;7654;45.308;-75.096;2023-04-22T06:46:32;8.70;99.90
15107;DHT22;7654;45.308;-75.096;2023-04-22T06:49:03;8.70;99.90
15107;DHT22;7654;45.308;-75.096;2023-04-22T06:51:33;8.60;99.90
15107;DHT22;7654;45.308;-75.096;2023-04-22T06:54:04;8.60;99.90
15107;DHT22;7654;45.308;-75.096;2023-04-22T06:56:36;8.50;99.90
15107;DHT22;7654;45.308;-75.096;2023-04-22T06:59:07;8.50;99.90
15107;DHT22;7654;45.308;-75.096;2023-04-22T07:01:38;8.50;99.90
15107;DHT22;7654;45.308;-75.096;2023-04-22T07:04:08;8.60;99.90
15107;DHT22;7654;45.308;-75.096;2023-04-22T07:06:39;8.60;99.90
15107;DHT22;7654;45.308;-75.096;2023-04-22T07:09:09;8.70;99.90
15107;DHT22;7654;45.308;-75.096;2023-04-22T07:11:41;8.80;99.90
15107;DHT22;7654;45.308;-75.096;2023-04-22T07:14:11;8.80;99.90
15107;DHT22;7654;45.308;-75.096;2023-04-22T07:16:42;8.80;99.90
15107;DHT22;7654;45.308;-75.096;2023-04-22T07:19:12;8.90;99.90
15107;DHT22;7654;45.308;-75.096;2023-04-22T07:21:43;8.90;99.90
15107;DHT22;7654;45.308;-75.096;2023-04-22T07:24:13;9.00;99.90
15107;DHT22;7654;45.308;-75.096;2023-04-22T07:26:45;9.00;99.90
15107;DHT22;7654;45.308;-75.096;2023-04-22T07:29:15;9.10;99.90
15107;DHT22;7654;45.308;-75.096;2023-04-22T07:31:46;9.10;99.90
15107;DHT22;7654;45.308;-75.096;2023-04-22T07:34:18;9.20;99.90
15107;DHT22;7654;45.308;-75.096;2023-04-22T07:36:49;9.20;99.90
15107;DHT22;7654;45.308;-75.096;2023-04-22T07:39:22;9.10;99.90
15107;DHT22;7654;45.308;-75.096;2023-04-22T07:41:54;9.00;99.90
15107;DHT22;7654;45.308;-75.096;2023-04-22T07:44:25;8.90;99.90
15107;DHT22;7654;45.308;-75.096;2023-04-22T07:46:56;8.80;99.90
15107;DHT22;7654;45.308;-75.096;2023-04-22T07:49:26;8.80;99.90
15107;DHT22;7654;45.308;-75.096;2023-04-22T07:51:56;8.70;99.90
15107;DHT22;7654;45.308;-75.096;2023-04-22T07:54:27;8.70;99.90
15107;DHT22;7654;45.308;-75.096;2023-04-22T07:56:59;8.60;99.90
15107;DHT22;7654;45.308;-75.096;2023-04-22T07:59:30;8.70;99.90
15107;DHT22;7654;45.308;-75.096;2023-04-22T08:02:00;8.70;99.90
15107;DHT22;7654;45.308;-75.096;2023-04-22T08:04:30;8.70;99.90
15107;DHT22;7654;45.308;-75.096;2023-04-22T08:07:01;8.70;99.90
15107;DHT22;7654;45.308;-75.096;2023-04-22T08:09:51;8.70;99.90
15107;DHT22;7654;45.308;-75.096;2023-04-22T08:12:25;8.60;99.90
15107;DHT22;7654;45.308;-75.096;2023-04-22T08:14:55;8.50;99.90
15107;DHT22;7654;45.308;-75.096;2023-04-22T08:17:26;8.40;99.90
15107;DHT22;7654;45.308;-75.096;2023-04-22T08:19:57;8.30;99.90
15107;DHT22;7654;45.308;-75.096;2023-04-22T08:22:27;8.30;99.90
15107;DHT22;7654;45.308;-75.096;2023-04-22T08:24:57;8.20;99.90
15107;DHT22;7654;45.308;-75.096;2023-04-22T08:27:29;8.10;99.90
15107;DHT22;7654;45.308;-75.096;2023-04-22T08:30:00;8.10;99.90
15107;DHT22;7654;45.308;-75.096;2023-04-22T08:32:31;8.10;99.90
15107;DHT22;7654;45.308;-75.096;2023-04-22T08:35:01;8.00;99.90
15107;DHT22;7654;45.308;-75.096;2023-04-22T08:37:32;8.00;99.90
15107;DHT22;7654;45.308;-75.096;2023-04-22T08:40:04;7.90;99.90
15107;DHT22;7654;45.308;-75.096;2023-04-22T08:42:37;7.90;99.90
15107;DHT22;7654;45.308;-75.096;2023-04-22T08:45:08;7.90;99.90
15107;DHT22;7654;45.308;-75.096;2023-04-22T08:47:38;7.90;99.90
15107;DHT22;7654;45.308;-75.096;2023-04-22T08:50:10;7.90;99.90
15107;DHT22;7654;45.308;-75.096;2023-04-22T08:52:41;7.90;99.90
15107;DHT22;7654;45.308;-75.096;2023-04-22T08:55:13;7.90;99.90
15107;DHT22;7654;45.308;-75.096;2023-04-22T08:57:46;7.90;99.90
15107;DHT22;7654;45.308;-75.096;2023-04-22T09:00:18;7.90;99.90
15107;DHT22;7654;45.308;-75.096;2023-04-22T09:02:49;7.90;99.90
15107;DHT22;7654;45.308;-75.096;2023-04-22T09:05:21;7.90;99.90
15107;DHT22;7654;45.308;-75.096;2023-04-22T09:07:54;7.80;99.90
15107;DHT22;7654;45.308;-75.096;2023-04-22T09:10:25;7.80;99.90
15107;DHT22;7654;45.308;-75.096;2023-04-22T09:12:57;7.70;99.90
15107;DHT22;7654;45.308;-75.096;2023-04-22T09:15:29;7.60;99.90
15107;DHT22;7654;45.308;-75.096;2023-04-22T09:18:01;7.60;99.90
15107;DHT22;7654;45.308;-75.096;2023-04-22T09:20:32;7.50;99.90
15107;DHT22;7654;45.308;-75.096;2023-04-22T09:23:03;7.60;99.90
15107;DHT22;7654;45.308;-75.096;2023-04-22T09:25:34;7.60;99.90
15107;DHT22;7654;45.308;-75.096;2023-04-22T09:28:06;7.60;99.90
15107;DHT22;7654;45.308;-75.096;2023-04-22T09:30:40;7.60;99.90
15107;DHT22;7654;45.308;-75.096;2023-04-22T09:33:10;7.60;99.90
15107;DHT22;7654;45.308;-75.096;2023-04-22T09:35:42;7.60;99.90
15107;DHT22;7654;45.308;-75.096;2023-04-22T09:38:13;7.70;99.90
15107;DHT22;7654;45.308;-75.096;2023-04-22T09:40:44;7.80;99.90
15107;DHT22;7654;45.308;-75.096;2023-04-22T09:43:17;7.80;99.90
15107;DHT22;7654;45.308;-75.096;2023-04-22T09:45:49;7.90;99.90
15107;DHT22;7654;45.308;-75.096;2023-04-22T09:48:20;7.90;99.90
15107;DHT22;7654;45.308;-75.096;2023-04-22T09:50:51;7.90;99.90
15107;DHT22;7654;45.308;-75.096;2023-04-22T09:53:21;7.90;99.90
15107;DHT22;7654;45.308;-75.096;2023-04-22T09:55:53;7.90;99.90
15107;DHT22;7654;45.308;-75.096;2023-04-22T09:58:26;7.90;99.90
15107;DHT22;7654;45.308;-75.096;2023-04-22T10:00:57;7.90;99.90
15107;DHT22;7654;45.308;-75.096;2023-04-22T10:03:28;7.90;99.90
15107;DHT22;7654;45.308;-75.096;2023-04-22T10:05:58;7.90;99.90
15107;DHT22;7654;45.308;-75.096;2023-04-22T10:08:29;7.90;99.90
15107;DHT22;7654;45.308;-75.096;2023-04-22T10:11:00;7.90;99.90
15107;DHT22;7654;45.308;-75.096;2023-04-22T10:13:32;7.80;99.90
15107;DHT22;7654;45.308;-75.096;2023-04-22T10:16:04;7.80;99.90
15107;DHT22;7654;45.308;-75.096;2023-04-22T10:18:37;7.80;99.90
15107;DHT22;7654;45.308;-75.096;2023-04-22T10:21:08;7.80;99.90
15107;DHT22;7654;45.308;-75.096;2023-04-22T10:23:45;7.80;99.90
15107;DHT22;7654;45.308;-75.096;2023-04-22T10:26:40;7.90;99.90
15107;DHT22;7654;45.308;-75.096;2023-04-22T10:29:15;7.90;99.90
15107;DHT22;7654;45.308;-75.096;2023-04-22T10:31:52;7.90;99.90
15107;DHT22;7654;45.308;-75.096;2023-04-22T10:34:24;7.90;99.90
15107;DHT22;7654;45.308;-75.096;2023-04-22T10:36:56;7.90;99.90
15107;DHT22;7654;45.308;-75.096;2023-04-22T10:39:28;8.00;99.90
15107;DHT22;7654;45.308;-75.096;2023-04-22T10:42:07;8.10;99.90
15107;DHT22;7654;45.308;-75.096;2023-04-22T10:44:49;8.10;99.90
15107;DHT22;7654;45.308;-75.096;2023-04-22T10:47:29;8.20;99.90
15107;DHT22;7654;45.308;-75.096;2023-04-22T10:50:24;8.20;99.90
15107;DHT22;7654;45.308;-75.096;2023-04-22T10:52:56;8.30;99.90
15107;DHT22;7654;45.308;-75.096;2023-04-22T10:55:48;8.30;99.90
15107;DHT22;7654;45.308;-75.096;2023-04-22T10:58:18;8.30;99.90
15107;DHT22;7654;45.308;-75.096;2023-04-22T11:00:52;8.30;99.90
15107;DHT22;7654;45.308;-75.096;2023-04-22T11:03:27;8.30;99.90
15107;DHT22;7654;45.308;-75.096;2023-04-22T11:06:15;8.20;99.90
15107;DHT22;7654;45.308;-75.096;2023-04-22T11:08:47;8.20;99.90
15107;DHT22;7654;45.308;-75.096;2023-04-22T11:11:18;8.20;99.90
15107;DHT22;7654;45.308;-75.096;2023-04-22T11:13:48;8.30;99.90
15107;DHT22;7654;45.308;-75.096;2023-04-22T11:16:22;8.30;99.90
15107;DHT22;7654;45.308;-75.096;2023-04-22T11:18:55;8.40;99.90
15107;DHT22;7654;45.308;-75.096;2023-04-22T11:21:26;8.40;99.90
15107;DHT22;7654;45.308;-75.096;2023-04-22T11:23:56;8.50;99.90
15107;DHT22;7654;45.308;-75.096;2023-04-22T11:26:33;8.60;99.90
15107;DHT22;7654;45.308;-75.096;2023-04-22T11:29:04;8.70;99.90
15107;DHT22;7654;45.308;-75.096;2023-04-22T11:31:36;8.90;99.90
15107;DHT22;7654;45.308;-75.096;2023-04-22T11:34:08;9.00;99.90
15107;DHT22;7654;45.308;-75.096;2023-04-22T11:36:43;9.10;99.90
15107;DHT22;7654;45.308;-75.096;2023-04-22T11:39:14;9.20;99.90
15107;DHT22;7654;45.308;-75.096;2023-04-22T11:41:46;9.20;99.90
15107;DHT22;7654;45.308;-75.096;2023-04-22T11:44:16;9.20;99.90
15107;DHT22;7654;45.308;-75.096;2023-04-22T11:46:49;9.30;99.90
15107;DHT22;7654;45.308;-75.096;2023-04-22T11:49:19;9.30;99.90
15107;DHT22;7654;45.308;-75.096;2023-04-22T11:51:56;9.30;99.90
15107;DHT22;7654;45.308;-75.096;2023-04-22T11:54:31;9.40;99.90
15107;DHT22;7654;45.308;-75.096;2023-04-22T11:57:02;9.50;99.90
15107;DHT22;7654;45.308;-75.096;2023-04-22T11:59:34;9.70;99.90
15107;DHT22;7654;45.308;-75.096;2023-04-22T12:02:06;9.70;99.90
15107;DHT22;7654;45.308;-75.096;2023-04-22T12:04:38;9.90;99.90
15107;DHT22;7654;45.308;-75.096;2023-04-22T12:07:08;10.00;99.90
15107;DHT22;7654;45.308;-75.096;2023-04-22T12:09:39;10.10;99.90
15107;DHT22;7654;45.308;-75.096;2023-04-22T12:12:09;10.10;99.90
15107;DHT22;7654;45.308;-75.096;2023-04-22T12:14:39;10.10;99.90
15107;DHT22;7654;45.308;-75.096;2023-04-22T12:17:15;10.20;99.90
15107;DHT22;7654;45.308;-75.096;2023-04-22T12:19:47;10.20;99.90
15107;DHT22;7654;45.308;-75.096;2023-04-22T12:22:24;10.30;99.90
15107;DHT22;7654;45.308;-75.096;2023-04-22T12:24:58;10.50;99.90
15107;DHT22;7654;45.308;-75.096;2023-04-22T12:27:29;10.80;99.90
15107;DHT22;7654;45.308;-75.096;2023-04-22T12:29:59;10.90;99.90
15107;DHT22;7654;45.308;-75.096;2023-04-22T12:32:31;11.10;99.90
15107;DHT22;7654;45.308;-75.096;2023-04-22T12:35:02;11.30;99.90
15107;DHT22;7654;45.308;-75.096;2023-04-22T12:37:32;11.50;99.90
15107;DHT22;7654;45.308;-75.096;2023-04-22T12:40:04;11.60;99.90
15107;DHT22;7654;45.308;-75.096;2023-04-22T12:42:34;11.70;99.90
15107;DHT22;7654;45.308;-75.096;2023-04-22T12:45:06;11.90;99.90
15107;DHT22;7654;45.308;-75.096;2023-04-22T12:47:38;12.00;99.90
15107;DHT22;7654;45.308;-75.096;2023-04-22T12:50:09;12.00;99.90
15107;DHT22;7654;45.308;-75.096;2023-04-22T12:52:40;12.00;99.90
15107;DHT22;7654;45.308;-75.096;2023-04-22T12:55:10;12.00;99.90
15107;DHT22;7654;45.308;-75.096;2023-04-22T12:57:41;12.00;99.90
15107;DHT22;7654;45.308;-75.096;2023-04-22T13:00:12;12.20;99.90
15107;DHT22;7654;45.308;-75.096;2023-04-22T13:02:47;12.50;99.90
15107;DHT22;7654;45.308;-75.096;2023-04-22T13:05:18;12.70;99.90
15107;DHT22;7654;45.308;-75.096;2023-04-22T13:07:49;12.90;99.90
15107;DHT22;7654;45.308;-75.096;2023-04-22T13:10:33;13.10;99.90
15107;DHT22;7654;45.308;-75.096;2023-04-22T13:13:04;13.40;99.90
15107;DHT22;7654;45.308;-75.096;2023-04-22T13:15:38;13.60;99.90
15107;DHT22;7654;45.308;-75.096;2023-04-22T13:18:10;13.80;99.90
15107;DHT22;7654;45.308;-75.096;2023-04-22T13:20:40;14.00;99.90
15107;DHT22;7654;45.308;-75.096;2023-04-22T13:23:11;14.20;99.90
15107;DHT22;7654;45.308;-75.096;2023-04-22T13:25:42;14.40;99.90
15107;DHT22;7654;45.308;-75.096;2023-04-22T13:28:13;14.60;99.90
15107;DHT22;7654;45.308;-75.096;2023-04-22T13:30:43;14.80;99.90
15107;DHT22;7654;45.308;-75.096;2023-04-22T13:33:15;14.90;99.90
15107;DHT22;7654;45.308;-75.096;2023-04-22T13:35:46;15.00;99.90
15107;DHT22;7654;45.308;-75.096;2023-04-22T13:38:16;15.10;99.90
15107;DHT22;7654;45.308;-75.096;2023-04-22T13:40:47;15.30;99.90
15107;DHT22;7654;45.308;-75.096;2023-04-22T13:43:18;15.40;99.90
15107;DHT22;7654;45.308;-75.096;2023-04-22T13:45:48;15.60;99.90
15107;DHT22;7654;45.308;-75.096;2023-04-22T13:48:20;15.70;99.90
15107;DHT22;7654;45.308;-75.096;2023-04-22T13:50:51;15.90;99.90
15107;DHT22;7654;45.308;-75.096;2023-04-22T13:53:21;16.00;99.90
15107;DHT22;7654;45.308;-75.096;2023-04-22T13:55:52;16.10;99.90
15107;DHT22;7654;45.308;-75.096;2023-04-22T13:58:23;16.20;99.90
15107;DHT22;7654;45.308;-75.096;2023-04-22T14:00:54;16.40;99.90
15107;DHT22;7654;45.308;-75.096;2023-04-22T14:03:25;16.40;99.90
15107;DHT22;7654;45.308;-75.096;2023-04-22T14:05:58;16.40;99.90
15107;DHT22;7654;45.308;-75.096;2023-04-22T14:08:29;16.50;99.90
15107;DHT22;7654;45.308;-75.096;2023-04-22T14:11:00;16.60;99.90
15107;DHT22;7654;45.308;-75.096;2023-04-22T14:13:30;16.80;99.90
15107;DHT22;7654;45.308;-75.096;2023-04-22T14:16:01;16.90;99.90
15107;DHT22;7654;45.308;-75.096;2023-04-22T14:18:38;16.80;99.90
15107;DHT22;7654;45.308;-75.096;2023-04-22T14:21:09;16.60;99.90
15107;DHT22;7654;45.308;-75.096;2023-04-22T14:23:40;16.60;99.90
15107;DHT22;7654;45.308;-75.096;2023-04-22T14:26:11;16.70;99.90
15107;DHT22;7654;45.308;-75.096;2023-04-22T14:28:43;16.90;99.90
15107;DHT22;7654;45.308;-75.096;2023-04-22T14:31:13;17.10;99.90
15107;DHT22;7654;45.308;-75.096;2023-04-22T14:33:45;17.20;99.90
15107;DHT22;7654;45.308;-75.096;2023-04-22T14:36:17;17.40;99.90
15107;DHT22;7654;45.308;-75.096;2023-04-22T14:41:22;17.90;99.90
15107;DHT22;7654;45.308;-75.096;2023-04-22T14:43:52;18.00;99.90
15107;DHT22;7654;45.308;-75.096;2023-04-22T14:46:23;18.00;99.90
15107;DHT22;7654;45.308;-75.096;2023-04-22T14:48:53;17.90;99.90
15107;DHT22;7654;45.308;-75.096;2023-04-22T14:51:24;17.80;99.90
15107;DHT22;7654;45.308;-75.096;2023-04-22T14:53:56;17.90;99.90
15107;DHT22;7654;45.308;-75.096;2023-04-22T14:56:28;18.00;99.90
15107;DHT22;7654;45.308;-75.096;2023-04-22T14:58:58;18.10;99.90
15107;DHT22;7654;45.308;-75.096;2023-04-22T15:01:29;18.10;99.90
15107;DHT22;7654;45.308;-75.096;2023-04-22T15:04:00;18.10;99.90
15107;DHT22;7654;45.308;-75.096;2023-04-22T15:06:31;18.00;99.90
15107;DHT22;7654;45.308;-75.096;2023-04-22T15:09:01;18.00;99.90
15107;DHT22;7654;45.308;-75.096;2023-04-22T15:11:33;18.10;99.90
15107;DHT22;7654;45.308;-75.096;2023-04-22T15:14:04;18.00;99.90
15107;DHT22;7654;45.308;-75.096;2023-04-22T15:16:35;18.10;99.90
15107;DHT22;7654;45.308;-75.096;2023-04-22T15:19:06;18.30;99.90
15107;DHT22;7654;45.308;-75.096;2023-04-22T15:21:36;18.60;99.90
15107;DHT22;7654;45.308;-75.096;2023-04-22T15:24:06;18.50;99.90
15107;DHT22;7654;45.308;-75.096;2023-04-22T15:26:40;18.50;99.90
15107;DHT22;7654;45.308;-75.096;2023-04-22T15:29:10;18.50;99.90
15107;DHT22;7654;45.308;-75.096;2023-04-22T15:31:40;18.60;99.90
15107;DHT22;7654;45.308;-75.096;2023-04-22T15:34:10;18.60;99.90
15107;DHT22;7654;45.308;-75.096;2023-04-22T15:36:41;18.60;99.90
15107;DHT22;7654;45.308;-75.096;2023-04-22T15:39:12;18.70;99.90
15107;DHT22;7654;45.308;-75.096;2023-04-22T15:41:45;18.80;99.90
15107;DHT22;7654;45.308;-75.096;2023-04-22T15:44:15;18.90;99.90
15107;DHT22;7654;45.308;-75.096;2023-04-22T15:46:46;19.00;99.90
15107;DHT22;7654;45.308;-75.096;2023-04-22T15:49:17;19.00;99.90
15107;DHT22;7654;45.308;-75.096;2023-04-22T15:51:47;18.70;99.90